Time;durP1;ratioP1;P1;durP2;ratioP2;P2;SDS_P1;SDS_P2;PMS_P1;PMS_P2;Temp;Humidity;BMP_temperature;BMP_pressure;BME280_temperature;BME280_humidity;BME280_pressure;Samples;Min_cycle;Max_cycle;Signal;HPM_P1;HPM_P2
2021/12/03 00:02:16;;;;;;;3.6;2.2;;;;;;;0.09;93.25586;929.1373;;;;
2021/12/03 00:04:44;;;;;;;2.5;2.2;;;;;;;0.13;92.97852;929.1671;;;;
2021/12/03 00:07:09;;;;;;;2.3;1.7;;;;;;;0.11;92.9834;929.3314;;;;
2021/12/03 00:10:23;;;;;;;1.9;1.7;;;;;;;0.3;92.8916;929.3411;;;;
2021/12/03 00:12:46;;;;;;;2.3;1.8;;;;;;;0.29;92.87891;929.3335;;;;
2021/12/03 00:15:11;;;;;;;1.8;1.7;;;;;;;0.26;92.31543;929.2434;;;;
2021/12/03 00:17:38;;;;;;;1.7;1.6;;;;;;;0.46;92.12207;929.3504;;;;
2021/12/03 00:20:06;;;;;;;3;2.2;;;;;;;0.54;91.65137;929.3945;;;;
2021/12/03 00:22:31;;;;;;;2;1.8;;;;;;;0.49;90.88086;929.3758;;;;
2021/12/03 00:25:00;;;;;;;1.8;1.6;;;;;;;0.38;91.25781;929.4007;;;;
2021/12/03 00:27:31;;;;;;;2.1;1.6;;;;;;;0.35;90.92871;929.4772;;;;
2021/12/03 00:29:59;;;;;;;2.4;1.8;;;;;;;0.16;91.94824;929.5115;;;;
2021/12/03 00:32:24;;;;;;;2.4;1.9;;;;;;;0.43;91.54785;929.47;;;;
2021/12/03 00:34:58;;;;;;;2.5;1.9;;;;;;;0.38;91.64746;929.6958;;;;
2021/12/03 00:37:32;;;;;;;1.4;1.3;;;;;;;0.38;90.72461;929.6843;;;;
2021/12/03 00:39:57;;;;;;;2.6;1.5;;;;;;;0.38;90.43457;929.7344;;;;
2021/12/03 00:42:30;;;;;;;2.4;1.5;;;;;;;0.49;90.2998;929.7866;;;;
2021/12/03 00:44:56;;;;;;;1.5;1.4;;;;;;;0.57;89.67188;929.7572;;;;
2021/12/03 00:47:21;;;;;;;1.5;1.4;;;;;;;0.64;88.62695;929.8554;;;;
2021/12/03 00:49:46;;;;;;;1.3;1.2;;;;;;;0.61;87.97266;929.813;;;;
2021/12/03 00:52:11;;;;;;;1.5;1.4;;;;;;;0.45;87.83984;929.9391;;;;
2021/12/03 00:54:42;;;;;;;1.4;1.3;;;;;;;0.45;87.54883;930.014;;;;
2021/12/03 00:57:08;;;;;;;1.4;1.3;;;;;;;0.4;86.58008;930.0471;;;;
2021/12/03 00:59:47;;;;;;;1.3;1.2;;;;;;;0.45;86.76758;930.0658;;;;
2021/12/03 01:02:18;;;;;;;1.1;0.9;;;;;;;0.57;86.19141;930.13;;;;
2021/12/03 01:04:49;;;;;;;1.3;1;;;;;;;0.71;85.81543;930.1803;;;;
2021/12/03 01:07:14;;;;;;;1;1;;;;;;;0.67;85.53125;930.2527;;;;
2021/12/03 01:09:41;;;;;;;1.6;1.2;;;;;;;0.62;84.70801;930.3356;;;;
2021/12/03 01:12:07;;;;;;;1.5;1.1;;;;;;;0.76;84.57813;930.3325;;;;
2021/12/03 01:14:39;;;;;;;1.5;1.1;;;;;;;0.93;84.49902;930.3445;;;;
2021/12/03 01:17:04;;;;;;;1.4;1.1;;;;;;;0.93;84.59961;930.4667;;;;
2021/12/03 01:19:32;;;;;;;1.4;1.3;;;;;;;0.9;83.96973;930.5887;;;;
2021/12/03 01:21:57;;;;;;;2.3;1.7;;;;;;;0.94;83.6748;930.6668;;;;
2021/12/03 01:24:22;;;;;;;1.8;1.7;;;;;;;0.89;84.36914;930.7012;;;;
2021/12/03 01:26:54;;;;;;;1.9;1.8;;;;;;;0.91;84.45313;930.7703;;;;
2021/12/03 01:29:15;;;;;;;1.5;1.4;;;;;;;0.68;85.96777;930.8281;;;;
2021/12/03 01:31:44;;;;;;;1.9;1.4;;;;;;;0.78;83.95703;930.9565;;;;
2021/12/03 01:34:17;;;;;;;1.9;1.6;;;;;;;0.95;84.12305;931.0832;;;;
2021/12/03 01:36:42;;;;;;;3.2;1.9;;;;;;;0.95;84.78418;931.1015;;;;
2021/12/03 01:39:12;;;;;;;2.3;1.9;;;;;;;1.06;85.07324;931.0825;;;;
2021/12/03 01:41:37;;;;;;;2.5;2.2;;;;;;;1.03;85.28027;931.1907;;;;
2021/12/03 01:44:04;;;;;;;2.3;2;;;;;;;1.02;83.91406;931.205;;;;
2021/12/03 01:46:33;;;;;;;2.3;1.7;;;;;;;1.06;82.4043;931.2575;;;;
2021/12/03 01:49:02;;;;;;;1.6;1.5;;;;;;;1.02;83.30078;931.2341;;;;
2021/12/03 01:51:27;;;;;;;2.4;2;;;;;;;;;;;;;
2021/12/03 01:53:52;;;;;;;2.4;1.9;;;;;;;;;;;;;
2021/12/03 01:56:17;;;;;;;2.2;2;;;;;;;;;;;;;
2021/12/03 01:58:42;;;;;;;2;1.8;;;;;;;;;;;;;
2021/12/03 02:01:25;;;;;;;1.7;1.5;;;;;;;;;;;;;
2021/12/03 02:03:50;;;;;;;2.5;1.8;;;;;;;;;;;;;
2021/12/03 02:06:15;;;;;;;2.1;1.7;;;;;;;;;;;;;
2021/12/03 02:08:40;;;;;;;2.1;1.9;;;;;;;;;;;;;
2021/12/03 02:11:05;;;;;;;3;1.8;;;;;;;;;;;;;
2021/12/03 02:13:32;;;;;;;2.9;1.7;;;;;;;;;;;;;
2021/12/03 02:15:58;;;;;;;2.1;1.9;;;;;;;;;;;;;
2021/12/03 02:18:24;;;;;;;2.5;1.9;;;;;;;;;;;;;
2021/12/03 02:20:49;;;;;;;1.7;1.6;;;;;;;;;;;;;
2021/12/03 02:23:16;;;;;;;2.1;1.9;;;;;;;;;;;;;
2021/12/03 02:25:41;;;;;;;2.3;1.9;;;;;;;;;;;;;
2021/12/03 02:28:06;;;;;;;3.1;2.3;;;;;;;;;;;;;
2021/12/03 02:30:31;;;;;;;3;2.7;;;;;;;;;;;;;
2021/12/03 02:33:02;;;;;;;3;2.5;;;;;;;;;;;;;
2021/12/03 02:35:30;;;;;;;3.2;2.7;;;;;;;;;;;;;
2021/12/03 02:37:55;;;;;;;3.4;2.7;;;;;;;;;;;;;
2021/12/03 02:40:23;;;;;;;2.3;2.1;;;;;;;;;;;;;
2021/12/03 02:42:48;;;;;;;2.6;2.2;;;;;;;;;;;;;
2021/12/03 02:45:18;;;;;;;2;1.8;;;;;;;;;;;;;
2021/12/03 02:47:44;;;;;;;2.1;1.6;;;;;;;;;;;;;
2021/12/03 02:50:09;;;;;;;2.2;1.9;;;;;;;;;;;;;
2021/12/03 02:52:35;;;;;;;2.3;2.1;;;;;;;;;;;;;
2021/12/03 02:55:00;;;;;;;3;1.8;;;;;;;;;;;;;
2021/12/03 02:57:26;;;;;;;2.8;2;;;;;;;;;;;;;
2021/12/03 02:59:51;;;;;;;4.2;2.3;;;;;;;;;;;;;
2021/12/03 03:02:17;;;;;;;2.6;2.4;;;;;;;;;;;;;
2021/12/03 03:04:42;;;;;;;3.6;2.7;;;;;;;;;;;;;
2021/12/03 03:07:07;;;;;;;4.2;3;;;;;;;;;;;;;
2021/12/03 03:09:34;;;;;;;3.1;2.8;;;;;;;;;;;;;
2021/12/03 03:11:58;;;;;;;2.4;2.2;;;;;;;;;;;;;
2021/12/03 03:14:24;;;;;;;2.7;2.1;;;;;;;;;;;;;
2021/12/03 03:16:51;;;;;;;2.8;2.2;;;;;;;;;;;;;
2021/12/03 03:19:17;;;;;;;3;2.6;;;;;;;;;;;;;
2021/12/03 03:21:42;;;;;;;3.3;2.8;;;;;;;;;;;;;
2021/12/03 03:24:12;;;;;;;3.1;2.8;;;;;;;;;;;;;
2021/12/03 03:26:38;;;;;;;3.1;2.6;;;;;;;;;;;;;
2021/12/03 03:29:04;;;;;;;3.6;2.9;;;;;;;;;;;;;
2021/12/03 03:31:28;;;;;;;2.5;2.3;;;;;;;;;;;;;
2021/12/03 03:33:53;;;;;;;3;2.4;;;;;;;;;;;;;
2021/12/03 03:36:18;;;;;;;3.2;2.3;;;;;;;;;;;;;
2021/12/03 03:38:43;;;;;;;2.8;2.5;;;;;;;;;;;;;
2021/12/03 03:41:08;;;;;;;2.7;2.3;;;;;;;;;;;;;
2021/12/03 03:43:33;;;;;;;3.2;2.7;;;;;;;;;;;;;
2021/12/03 03:46:06;;;;;;;3.1;2.8;;;;;;;;;;;;;
2021/12/03 03:48:32;;;;;;;4.9;3.1;;;;;;;;;;;;;
2021/12/03 03:50:57;;;;;;;3.4;3;;;;;;;;;;;;;
2021/12/03 03:53:24;;;;;;;3.7;2.9;;;;;;;;;;;;;
2021/12/03 03:55:49;;;;;;;3;2.5;;;;;;;;;;;;;
2021/12/03 03:58:24;;;;;;;3.4;2.8;;;;;;;;;;;;;
2021/12/03 04:02:36;;;;;;;3.2;2.6;;;;;;;0.24;93.58008;932.1908;;;;
2021/12/03 04:05:01;;;;;;;6.2;3;;;;;;;0.12;93.83008;932.1702;;;;
2021/12/03 04:07:27;;;;;;;5.8;3.3;;;;;;;0.02;94.50977;932.1116;;;;
2021/12/03 04:09:53;;;;;;;5.7;3.4;;;;;;;-0.02;95.12598;932.1779;;;;
2021/12/03 04:12:24;;;;;;;4.5;3;;;;;;;0.05;94.9082;932.1662;;;;
2021/12/03 04:16:19;;;;;;;5.1;3.2;;;;;;;0.26;94.34375;932.1877;;;;
2021/12/03 04:18:44;;;;;;;5.6;3.1;;;;;;;0.34;94.14844;932.1982;;;;
2021/12/03 04:21:10;;;;;;;3.1;2.7;;;;;;;0.14;93.68066;932.1522;;;;
2021/12/03 04:29:00;;;;;;;3.8;2.6;;;;;;;0.12;94.04395;932.3864;;;;
2021/12/03 04:31:25;;;;;;;3.9;2.7;;;;;;;0.03;93.66602;932.4319;;;;
2021/12/03 04:33:50;;;;;;;2.6;2.3;;;;;;;0;93.84863;932.3906;;;;
2021/12/03 04:36:17;;;;;;;4.7;2.8;;;;;;;0.02;93.89941;932.4045;;;;
2021/12/03 04:38:42;;;;;;;3.3;2.4;;;;;;;0.1;93.39355;932.3747;;;;
2021/12/03 04:41:17;;;;;;;4.8;2.5;;;;;;;0.03;93.25293;932.4241;;;;
2021/12/03 04:43:49;;;;;;;3.8;2.9;;;;;;;0.28;92.45117;932.442;;;;
2021/12/03 04:46:14;;;;;;;3.9;3.2;;;;;;;0.49;91.49512;932.4211;;;;
2021/12/03 04:48:42;;;;;;;4.1;3.1;;;;;;;0.71;90.64941;932.5424;;;;
2021/12/03 04:51:14;;;;;;;5.1;3;;;;;;;0.79;89.61719;932.5516;;;;
2021/12/03 04:53:39;;;;;;;3.3;2.8;;;;;;;0.87;89.43359;932.5773;;;;
2021/12/03 04:56:04;;;;;;;5.1;3;;;;;;;0.98;88.88672;932.5742;;;;
2021/12/03 04:58:38;;;;;;;3.6;2.9;;;;;;;0.85;89.69727;932.6174;;;;
2021/12/03 05:01:06;;;;;;;4.1;2.9;;;;;;;0.94;89.45996;932.5894;;;;
2021/12/03 05:03:33;;;;;;;3.3;2.9;;;;;;;0.98;88.86523;932.6331;;;;
2021/12/03 05:06:02;;;;;;;3.7;2.6;;;;;;;1.02;88.72949;932.5306;;;;
2021/12/03 05:08:25;;;;;;;3.2;2.8;;;;;;;0.84;88.57813;932.555;;;;
2021/12/03 05:10:51;;;;;;;4.5;2.8;;;;;;;0.71;88.8418;932.5792;;;;
2021/12/03 05:13:18;;;;;;;3.7;2.4;;;;;;;0.84;88.07715;932.613;;;;
2021/12/03 05:21:26;;;;;;;3.5;2.9;;;;;;;0.5;87.31445;932.6831;;;;
2021/12/03 05:23:53;;;;;;;4.5;3.5;;;;;;;0.26;89.54004;932.7568;;;;
2021/12/03 05:26:22;;;;;;;5.2;3.7;;;;;;;0.23;89.71191;932.6531;;;;
2021/12/03 05:28:47;;;;;;;5.7;3.7;;;;;;;0.19;89.8125;932.7379;;;;
2021/12/03 05:31:15;;;;;;;5;3.8;;;;;;;-0.06;90.0498;932.8056;;;;
2021/12/03 05:33:40;;;;;;;4.8;3.6;;;;;;;-0.09;90.91309;932.8669;;;;
2021/12/03 05:36:07;;;;;;;7.2;4.3;;;;;;;-0.17;91.54102;932.895;;;;
2021/12/03 05:38:34;;;;;;;6.2;4;;;;;;;0.02;90.26563;932.9105;;;;
2021/12/03 05:40:59;;;;;;;6.3;4.2;;;;;;;0.08;89.66699;932.9529;;;;
2021/12/03 05:43:30;;;;;;;5.6;4.2;;;;;;;-0.1;90.73047;932.9713;;;;
2021/12/03 05:45:57;;;;;;;9.6;7.2;;;;;;;0.03;90.53711;933.0559;;;;
2021/12/03 05:48:22;;;;;;;14.1;10.9;;;;;;;0.07;90.24609;933.0811;;;;
2021/12/03 05:50:52;;;;;;;9.9;8;;;;;;;0.22;89.81836;933.1261;;;;
2021/12/03 05:53:21;;;;;;;7.9;5.6;;;;;;;0.27;89.63965;933.165;;;;
2021/12/03 05:55:47;;;;;;;5;4.3;;;;;;;0.32;89.58496;933.1786;;;;
2021/12/03 05:58:12;;;;;;;5.6;4.4;;;;;;;0.3;90.48145;933.329;;;;
2021/12/03 06:00:41;;;;;;;3.7;3;;;;;;;0.18;90.3584;933.3795;;;;
2021/12/03 06:03:12;;;;;;;5.8;3.5;;;;;;;0.19;90.88379;933.4489;;;;
2021/12/03 06:05:42;;;;;;;4.9;3.7;;;;;;;0.04;91.08496;933.5045;;;;
2021/12/03 06:08:13;;;;;;;4.6;3.2;;;;;;;-0.21;92.12305;933.4776;;;;
2021/12/03 06:10:45;;;;;;;6.3;3.6;;;;;;;-0.01;92.3877;933.5502;;;;
2021/12/03 06:13:14;;;;;;;6.9;4.7;;;;;;;0.06;92.4502;933.5439;;;;
2021/12/03 06:15:47;;;;;;;6.4;4.5;;;;;;;0.15;92.23535;933.6932;;;;
2021/12/03 06:18:18;;;;;;;5.7;4.3;;;;;;;-0.09;92.38086;933.7626;;;;
2021/12/03 06:20:43;;;;;;;6.3;4.2;;;;;;;0.07;92.71777;933.8031;;;;
2021/12/03 06:23:08;;;;;;;5.5;4.1;;;;;;;0.12;92.9502;933.817;;;;
2021/12/03 06:25:33;;;;;;;6.4;4.6;;;;;;;0.23;92.4209;933.8384;;;;
2021/12/03 06:28:00;;;;;;;7.1;4.8;;;;;;;0.19;92.19922;933.9107;;;;
2021/12/03 06:30:26;;;;;;;7.8;4.9;;;;;;;0.25;92.22168;933.8828;;;;
2021/12/03 06:32:51;;;;;;;7.9;5.2;;;;;;;0.43;91.77051;933.9334;;;;
2021/12/03 06:35:22;;;;;;;5.8;4.2;;;;;;;0.6;90.99414;933.8912;;;;
2021/12/03 06:37:52;;;;;;;6.9;4.6;;;;;;;0.62;90.0498;933.8331;;;;
2021/12/03 06:40:20;;;;;;;8.2;5.5;;;;;;;0.54;89.89844;933.991;;;;
2021/12/03 06:42:50;;;;;;;6.7;3.5;;;;;;;0.21;90.3291;933.9586;;;;
2021/12/03 06:45:15;;;;;;;10.1;6.8;;;;;;;0.24;90.45898;934.0367;;;;
2021/12/03 06:47:47;;;;;;;24.5;14.7;;;;;;;0.31;89.98438;934.005;;;;
2021/12/03 06:50:16;;;;;;;6.8;5.3;;;;;;;0.19;89.80078;934.0295;;;;
2021/12/03 06:52:40;;;;;;;8.6;5;;;;;;;0.19;89.24609;934.0995;;;;
2021/12/03 06:55:04;;;;;;;7.4;4.9;;;;;;;0.09;89.30078;934.1289;;;;
2021/12/03 06:57:28;;;;;;;6.8;4.8;;;;;;;0.18;89.70996;934.0441;;;;
2021/12/03 07:00:00;;;;;;;7.4;5.4;;;;;;;0.37;89.04785;934.2119;;;;
2021/12/03 07:02:25;;;;;;;7.2;5.1;;;;;;;0.48;88.35742;934.2634;;;;
2021/12/03 07:04:51;;;;;;;7;4.9;;;;;;;0.55;88.34961;934.3219;;;;
2021/12/03 07:07:17;;;;;;;7.2;4.8;;;;;;;0.51;90.02637;934.3777;;;;
2021/12/03 07:09:45;;;;;;;11.3;7;;;;;;;0.51;89.08789;934.3812;;;;
2021/12/03 07:12:13;;;;;;;11.9;8;;;;;;;0.46;89.24707;934.4196;;;;
2021/12/03 07:14:36;;;;;;;10;7.3;;;;;;;0.41;90.37305;934.3845;;;;
2021/12/03 07:17:06;;;;;;;10.9;9;;;;;;;0.45;90.7041;934.3759;;;;
2021/12/03 07:19:37;;;;;;;11.7;8.3;;;;;;;0.61;90.53809;934.4163;;;;
2021/12/03 07:22:02;;;;;;;10.3;7.6;;;;;;;0.79;89.55078;934.4186;;;;
2021/12/03 07:24:29;;;;;;;9.9;7;;;;;;;0.95;88.6582;934.3845;;;;
2021/12/03 07:26:54;;;;;;;7.2;5.2;;;;;;;0.76;88.15918;934.3729;;;;
2021/12/03 07:29:21;;;;;;;16.9;13.1;;;;;;;0.62;88.86914;934.4646;;;;
2021/12/03 07:31:46;;;;;;;12;9.3;;;;;;;0.76;88.61816;934.5023;;;;
2021/12/03 07:34:14;;;;;;;15.1;11.8;;;;;;;0.89;88.65625;934.5859;;;;
2021/12/03 07:36:40;;;;;;;9.8;7.2;;;;;;;0.85;89.19336;934.585;;;;
2021/12/03 07:39:05;;;;;;;8.1;5.1;;;;;;;0.96;88.76074;934.5903;;;;
2021/12/03 07:41:30;;;;;;;7;5;;;;;;;1.15;88.09863;934.5556;;;;
2021/12/03 07:43:55;;;;;;;6.1;4.1;;;;;;;1.19;87.09863;934.5711;;;;
2021/12/03 07:47:16;;;;;;;6.3;4.3;;;;;;;1.39;87.19531;934.6575;;;;
2021/12/03 07:49:39;;;;;;;7;4.3;;;;;;;1.87;84.62207;934.7355;;;;
2021/12/03 07:52:05;;;;;;;6.7;4.9;;;;;;;2.19;83.87891;934.7338;;;;
2021/12/03 07:54:30;;;;;;;5.2;4.1;;;;;;;2.52;81.68066;934.6866;;;;
2021/12/03 07:56:58;;;;;;;5.3;4.1;;;;;;;2.5;80.61328;934.7645;;;;
2021/12/03 07:59:28;;;;;;;8.5;5;;;;;;;2.2;79.95215;934.7851;;;;
2021/12/03 08:01:58;;;;;;;7.5;5.4;;;;;;;3.05;79.93262;934.741;;;;
2021/12/03 08:04:32;;;;;;;5.5;4;;;;;;;4.89;72.34375;934.7786;;;;
2021/12/03 08:06:59;;;;;;;7.4;5.1;;;;;;;5.51;68.10449;934.7136;;;;
2021/12/03 08:09:22;;;;;;;6.5;4.9;;;;;;;5.23;68.66895;934.9397;;;;
2021/12/03 08:11:49;;;;;;;6.9;4.5;;;;;;;4.94;68.3623;934.9202;;;;
2021/12/03 08:14:14;;;;;;;5.1;4.2;;;;;;;4.62;71.26172;934.8299;;;;
2021/12/03 08:16:45;;;;;;;4.2;3.5;;;;;;;4.25;70.06348;934.9196;;;;
2021/12/03 08:19:10;;;;;;;4.6;3.5;;;;;;;4.18;71.37012;934.9796;;;;
2021/12/03 08:21:35;;;;;;;4.9;3.4;;;;;;;3.98;73.33594;934.9681;;;;
2021/12/03 08:24:00;;;;;;;4.8;3.4;;;;;;;4.29;71.09473;934.964;;;;
2021/12/03 08:26:25;;;;;;;4.2;3.3;;;;;;;4.37;69.80176;935.0347;;;;
2021/12/03 08:28:50;;;;;;;5;4;;;;;;;4.13;70.82031;935.0916;;;;
2021/12/03 08:31:16;;;;;;;5.8;4.2;;;;;;;4.07;71.85645;935.0804;;;;
2021/12/03 08:33:42;;;;;;;7.2;4.6;;;;;;;3.94;72.23926;935.0717;;;;
2021/12/03 08:36:09;;;;;;;6.3;4.7;;;;;;;4.09;71.38672;935.0992;;;;
2021/12/03 08:38:34;;;;;;;5.7;4.7;;;;;;;4.16;71.24121;935.1074;;;;
2021/12/03 08:41:00;;;;;;;7.5;4.9;;;;;;;3.54;73.07031;935.1806;;;;
2021/12/03 08:43:25;;;;;;;7.4;5;;;;;;;3.01;75.2998;935.127;;;;
2021/12/03 08:51:14;;;;;;;8.9;5.5;;;;;;;3.07;75.36719;935.1;;;;
2021/12/03 08:55:58;;;;;;;11.5;6.3;;;;;;;2.81;76.60059;935.1322;;;;
2021/12/03 08:58:23;;;;;;;9.1;6.6;;;;;;;2.55;78.04395;935.1646;;;;
2021/12/03 09:00:56;;;;;;;9;6.9;;;;;;;2.82;78.85645;935.2222;;;;
2021/12/03 09:03:26;;;;;;;10.4;6.8;;;;;;;2.66;78.70313;935.2165;;;;
2021/12/03 09:05:55;;;;;;;9.7;7;;;;;;;2.63;79.23633;935.2343;;;;
2021/12/03 09:08:21;;;;;;;11.3;7.2;;;;;;;2.32;80.17578;935.2248;;;;
2021/12/03 09:10:46;;;;;;;9.2;6.8;;;;;;;2.72;79.82422;935.2266;;;;
2021/12/03 09:13:22;;;;;;;8.6;6.7;;;;;;;2.99;77.81152;935.204;;;;
2021/12/03 09:15:57;;;;;;;9.4;6.6;;;;;;;3.25;75.94922;935.2249;;;;
2021/12/03 09:18:26;;;;;;;7.2;5.8;;;;;;;3.54;74.6543;935.2696;;;;
2021/12/03 09:20:54;;;;;;;6.9;5.7;;;;;;;3.79;73.83203;935.2459;;;;
2021/12/03 09:23:30;;;;;;;8.2;6.1;;;;;;;4.04;72.84082;935.2866;;;;
2021/12/03 09:25:52;;;;;;;9.1;6.2;;;;;;;3.93;71.6084;935.3212;;;;
2021/12/03 09:28:14;;;;;;;8;6;;;;;;;3.63;72.53418;935.3859;;;;
2021/12/03 09:30:44;;;;;;;9.1;5.3;;;;;;;3.49;71.97168;935.3632;;;;
2021/12/03 09:33:14;;;;;;;8;6;;;;;;;3.39;72.15723;935.3795;;;;
2021/12/03 09:35:40;;;;;;;7.5;5.4;;;;;;;3.31;72.89551;935.3549;;;;
2021/12/03 09:38:02;;;;;;;4.5;3.7;;;;;;;2.82;73.36133;935.3244;;;;
2021/12/03 09:40:35;;;;;;;5.1;4.1;;;;;;;2.87;74.99707;935.3253;;;;
2021/12/03 09:42:58;;;;;;;7.4;4.2;;;;;;;2.49;76.20605;935.2623;;;;
2021/12/03 09:45:29;;;;;;;6.3;4.7;;;;;;;2.42;75.64551;935.2711;;;;
2021/12/03 09:47:54;;;;;;;7.9;4.9;;;;;;;2.24;75.94824;935.2525;;;;
2021/12/03 09:50:19;;;;;;;5.8;4.6;;;;;;;2.05;77.12402;935.2729;;;;
2021/12/03 09:53:02;;;;;;;7.4;4.8;;;;;;;2.01;76.59961;935.2203;;;;
2021/12/03 09:55:16;;;;;;;8.2;5.9;;;;;;;1.97;77.1543;935.2612;;;;
2021/12/03 09:57:55;;;;;;;6.4;4;;;;;;;1.99;76.74316;935.2509;;;;
2021/12/03 10:00:22;;;;;;;4;3.4;;;;;;;1.79;76.71875;935.1702;;;;
2021/12/03 10:02:52;;;;;;;3.9;2.9;;;;;;;1.64;77.25;935.1514;;;;
2021/12/03 10:08:57;;;;;;;4.1;3.3;;;;;;;1.82;78.35742;935.163;;;;
2021/12/03 10:12:41;;;;;;;4.5;3.1;;;;;;;1.91;78.08496;935.1931;;;;
2021/12/03 10:15:03;;;;;;;4.3;3.3;;;;;;;1.88;78.02148;935.1323;;;;
2021/12/03 10:17:44;;;;;;;5.2;3.6;;;;;;;1.83;78.12402;935.0097;;;;
2021/12/03 10:20:57;;;;;;;5;3.6;;;;;;;1.73;79.12305;934.9978;;;;
2021/12/03 10:23:10;;;;;;;5.8;4;;;;;;;1.55;79.89453;935.0731;;;;
2021/12/03 10:28:06;;;;;;;5.6;4.2;;;;;;;1.84;80.10547;934.9863;;;;
2021/12/03 10:30:11;;;;;;;4.4;3.7;;;;;;;1.84;78.89746;935.0129;;;;
2021/12/03 10:33:15;;;;;;;4.1;3.6;;;;;;;1.64;78.7041;934.9238;;;;
2021/12/03 10:35:31;;;;;;;6.1;4.1;;;;;;;1.66;79.50293;934.9075;;;;
2021/12/03 10:37:55;;;;;;;4.9;3.9;;;;;;;1.71;79.88086;934.8722;;;;
2021/12/03 10:40:08;;;;;;;4.8;4;;;;;;;1.31;81.42578;934.8756;;;;
2021/12/03 10:43:59;;;;;;;4.7;4;;;;;;;1.61;80.52148;934.8372;;;;
2021/12/03 10:45:14;;;;;;;5.2;3.8;;;;;;;1.55;79.97266;934.7977;;;;
2021/12/03 10:47:43;;;;;;;4.5;3.7;;;;;;;1.67;79.65918;934.7704;;;;
2021/12/03 10:50:11;;;;;;;4.7;3.2;;;;;;;1.84;78.70898;934.7509;;;;
2021/12/03 10:52:34;;;;;;;3.7;2.9;;;;;;;1.67;77.8252;934.7469;;;;
2021/12/03 10:56:03;;;;;;;5;3.2;;;;;;;1.73;77.52344;934.6823;;;;
2021/12/03 10:57:40;;;;;;;4.2;2.7;;;;;;;1.79;77.0752;934.6434;;;;
2021/12/03 11:00:11;;;;;;;3.4;2.7;;;;;;;1.85;77.17578;934.5565;;;;
2021/12/03 11:05:08;;;;;;;5;2.8;;;;;;;1.67;77.45605;934.6308;;;;
2021/12/03 11:17:37;;;;;;;3.7;2.8;;;;;;;1.83;76.94922;934.38;;;;
2021/12/03 11:20:12;;;;;;;2.9;2.4;;;;;;;1.77;76.83887;934.3454;;;;
2021/12/03 11:27:34;;;;;;;3.5;2.4;;;;;;;1.93;75.98242;934.3192;;;;
2021/12/03 11:37:32;;;;;;;3.4;2.6;;;;;;;1.95;75.67188;934.2844;;;;
2021/12/03 11:40:44;;;;;;;3.2;2.6;;;;;;;1.85;75.64355;934.2913;;;;
2021/12/03 11:43:05;;;;;;;3.2;2.6;;;;;;;1.88;76.19824;934.3333;;;;
2021/12/03 11:58:15;;;;;;;3.2;2.3;;;;;;;1.93;75.05371;934.2611;;;;
2021/12/03 12:03:27;;;;;;;3.3;2.5;;;;;;;2.09;75.22656;934.2542;;;;
2021/12/03 12:10:51;;;;;;;4.5;3;;;;;;;1.94;76.86816;934.2692;;;;
2021/12/03 12:18:26;;;;;;;2.2;2;;;;;;;2.01;74.94531;934.2539;;;;
2021/12/03 12:33:03;;;;;;;3.1;2.7;;;;;;;2.26;76.72559;934.123;;;;
2021/12/03 12:38:27;;;;;;;4.3;2.8;;;;;;;1.94;76.58984;934.1689;;;;
2021/12/03 12:45:03;;;;;;;3.8;3;;;;;;;2.1;76.30469;934.0977;;;;
2021/12/03 12:58:15;;;;;;;3.5;2.8;;;;;;;2.54;74.86914;934.116;;;;
2021/12/03 13:17:35;;;;;;;2.5;2.3;;;;;;;2.27;73.13184;934.2434;;;;
2021/12/03 13:19:35;;;;;;;3.2;2.3;;;;;;;2.7;72.53418;934.1474;;;;
2021/12/03 13:25:09;;;;;;;2.4;2;;;;;;;7.11;59.33203;934.1686;;;;
2021/12/03 13:27:00;;;;;;;2.3;2;;;;;;;9.19;51.10547;934.0405;;;;
2021/12/03 13:35:17;;;;;;;2.8;2.3;;;;;;;12.1;42.62695;934.1721;;;;
2021/12/03 13:41:57;;;;;;;2.7;1.9;;;;;;;13.14;39.55957;934.1362;;;;
2021/12/03 14:01:29;;;;;;;2;1.8;;;;;;;5.45;54.81348;934.1169;;;;
2021/12/03 14:06:29;;;;;;;2.2;1.9;;;;;;;3.65;61.8418;934.1355;;;;
2021/12/03 14:17:53;;;;;;;2.8;2.3;;;;;;;2.07;68.2959;934.1414;;;;
2021/12/03 14:25:29;;;;;;;10.7;5.7;;;;;;;1.46;75.82129;934.2281;;;;
2021/12/03 14:28:07;;;;;;;10.3;6.1;;;;;;;1.29;77.08496;934.2701;;;;
2021/12/03 14:35:17;;;;;;;14.9;7;;;;;;;1.09;78.17578;934.3547;;;;
2021/12/03 14:36:49;;;;;;;17.8;8.5;;;;;;;0.81;79.10742;934.3047;;;;
2021/12/03 14:38:19;;;;;;;23.1;10.6;;;;;;;0.8;79.30664;934.2789;;;;
2021/12/03 14:41:32;;;;;;;12.7;6.5;;;;;;;0.86;78.68066;934.3951;;;;
2021/12/03 14:43:23;;;;;;;12.6;7.4;;;;;;;0.76;78.87598;934.3753;;;;
2021/12/03 14:45:24;;;;;;;15.1;8.8;;;;;;;0.8;79.49609;934.4213;;;;
2021/12/03 14:48:18;;;;;;;17.9;8.9;;;;;;;0.84;79.69434;934.3318;;;;
2021/12/03 14:52:43;;;;;;;16;9.1;;;;;;;0.57;80.71484;934.3949;;;;
2021/12/03 14:55:05;;;;;;;12.6;7.8;;;;;;;0.66;80.18555;934.4788;;;;
2021/12/03 14:57:43;;;;;;;22.3;13.2;;;;;;;0.79;79.85156;934.4422;;;;
2021/12/03 14:59:57;;;;;;;14.5;8.9;;;;;;;0.71;79.53711;934.3883;;;;
2021/12/03 15:02:27;;;;;;;13.3;8.3;;;;;;;0.2;80.87793;934.3702;;;;
2021/12/03 15:05:29;;;;;;;13.5;7.6;;;;;;;0.14;81.38965;934.495;;;;
2021/12/03 15:07:15;;;;;;;12.2;8.5;;;;;;;0.15;81.60254;934.4288;;;;
2021/12/03 15:09:38;;;;;;;12.8;8.2;;;;;;;0.2;82.03711;934.4406;;;;
2021/12/03 15:12:29;;;;;;;11.2;7.5;;;;;;;-0.04;83.13672;934.4676;;;;
2021/12/03 15:24:55;;;;;;;15.8;8.9;;;;;;;-0.3;83.69922;934.5313;;;;
2021/12/03 15:27:19;;;;;;;14.6;8.3;;;;;;;-0.47;83.66309;934.5125;;;;
2021/12/03 15:30:18;;;;;;;17.4;9.9;;;;;;;-0.86;85.5;934.4384;;;;
2021/12/03 15:31:56;;;;;;;15.1;9.4;;;;;;;-0.5;85.00391;934.5056;;;;
2021/12/03 15:34:46;;;;;;;21.4;14.9;;;;;;;-0.4;84.55664;934.5413;;;;
2021/12/03 15:37:00;;;;;;;17.6;11.2;;;;;;;-0.43;85.37305;934.6189;;;;
2021/12/03 15:39:28;;;;;;;18.5;11.4;;;;;;;-0.5;86.02832;934.6178;;;;
2021/12/03 15:51:53;;;;;;;20.5;11.8;;;;;;;-0.47;85.47754;934.6398;;;;
2021/12/03 15:56:58;;;;;;;17.3;10;;;;;;;-0.68;85.17871;934.5403;;;;
2021/12/03 16:03:41;;;;;;;18.7;11.1;;;;;;;-0.74;85.5332;934.6064;;;;
2021/12/03 16:08:31;;;;;;;17;11.2;;;;;;;-0.67;85.30371;934.5705;;;;
2021/12/03 16:11:05;;;;;;;31.3;16.2;;;;;;;-0.76;85.50879;934.454;;;;
2021/12/03 16:13:39;;;;;;;27.4;16;;;;;;;-0.85;85.67969;934.5295;;;;
2021/12/03 16:18:52;;;;;;;11.3;7.2;;;;;;;-1.1;83.54004;934.5013;;;;
2021/12/03 16:23:43;;;;;;;23.9;14.4;;;;;;;-1.11;86.21582;934.4;;;;
2021/12/03 16:26:18;;;;;;;23.3;15.2;;;;;;;-1.07;86.44531;934.4402;;;;
2021/12/03 16:52:58;;;;;;;35.1;19.8;;;;;;;-0.82;84.27148;934.361;;;;
2021/12/03 16:55:22;;;;;;;30.8;16.6;;;;;;;-1.02;84.84277;934.3845;;;;
2021/12/03 16:57:52;;;;;;;38.1;23.2;;;;;;;-1.14;85.03027;934.3517;;;;
2021/12/03 17:00:21;;;;;;;30.3;17.7;;;;;;;-1.31;85.48633;934.2726;;;;
2021/12/03 17:02:47;;;;;;;21.6;12.7;;;;;;;-1.6;87.21387;934.3244;;;;
2021/12/03 17:05:26;;;;;;;16.7;10.6;;;;;;;-1.69;87.7373;934.3234;;;;
2021/12/03 17:11:16;;;;;;;13.1;8.7;;;;;;;-1.49;87.30176;934.3004;;;;
2021/12/03 17:21:58;;;;;;;22.1;13.4;;;;;;;-1.45;86.33594;934.4509;;;;
2021/12/03 17:24:03;;;;;;;21.8;13.1;;;;;;;-1.55;87.07031;934.3892;;;;
2021/12/03 17:30:59;;;;;;;22.2;13.8;;;;;;;-1.64;86.9834;934.4688;;;;
2021/12/03 17:48:00;;;;;;;23.7;14.8;;;;;;;-1.76;87.24512;934.2045;;;;
2021/12/03 17:50:37;;;;;;;27.1;17.1;;;;;;;-1.8;88.45801;934.235;;;;
2021/12/03 17:53:18;;;;;;;21.8;14.5;;;;;;;-1.93;88.35547;934.1611;;;;
2021/12/03 17:55:30;;;;;;;21.4;12.6;;;;;;;-1.96;88.22559;934.0932;;;;
2021/12/03 17:57:39;;;;;;;21.5;14;;;;;;;-2.16;88.59375;934.0879;;;;
2021/12/03 18:00:03;;;;;;;25.9;15.1;;;;;;;-2.21;89.33594;934.092;;;;
2021/12/03 18:02:35;;;;;;;31.8;19;;;;;;;-2.21;89.33594;934.0945;;;;
2021/12/03 18:05:19;;;;;;;22.3;15;;;;;;;-2.24;89.41895;934.0751;;;;
2021/12/03 18:07:37;;;;;;;18.7;12.2;;;;;;;-2.29;89.69531;934.0695;;;;
2021/12/03 18:10:27;;;;;;;19;12.8;;;;;;;-2.24;89.29688;934.0836;;;;
2021/12/03 18:13:08;;;;;;;170;75.7;;;;;;;-2.43;89.63184;934.0362;;;;
2021/12/03 18:45:12;;;;;;;20.6;12.6;;;;;;;-2.56;89.36133;933.7315;;;;
2021/12/03 18:47:51;;;;;;;32;18.9;;;;;;;-2.31;89.40332;933.7972;;;;
2021/12/03 18:53:11;;;;;;;42;25.8;;;;;;;-2.25;89.39355;933.9124;;;;
2021/12/03 18:54:42;;;;;;;27.5;16.5;;;;;;;-2.26;88.5957;933.8139;;;;
2021/12/03 18:57:05;;;;;;;25.1;14.8;;;;;;;-2.41;89.06152;933.7444;;;;
2021/12/03 18:59:25;;;;;;;23.2;14.2;;;;;;;-2.33;89.03223;933.8577;;;;
2021/12/03 19:01:48;;;;;;;22.7;14.6;;;;;;;-2.25;89.03906;933.8217;;;;
2021/12/03 19:04:19;;;;;;;33.4;19.6;;;;;;;-2.46;89.21582;933.7619;;;;
2021/12/03 19:06:42;;;;;;;34.4;19.8;;;;;;;-2.56;90.05859;933.5745;;;;
2021/12/03 19:09:05;;;;;;;33.5;19.6;;;;;;;-2.48;90.31934;933.5522;;;;
2021/12/03 19:11:35;;;;;;;45.6;24.2;;;;;;;-2.46;89.71484;933.5998;;;;
2021/12/03 19:13:57;;;;;;;51.4;26.1;;;;;;;-2.3;89.66016;933.5934;;;;
2021/12/03 19:16:31;;;;;;;20.9;12.7;;;;;;;-2.29;88.32227;933.5719;;;;
2021/12/03 19:19:03;;;;;;;17;10.6;;;;;;;-2.62;88.87109;933.5683;;;;
2021/12/03 19:21:26;;;;;;;19.4;11.5;;;;;;;-2.46;88.85059;933.4216;;;;
2021/12/03 19:23:57;;;;;;;43.7;20.6;;;;;;;-2.41;89.03711;933.4392;;;;
2021/12/03 19:26:29;;;;;;;34;18.4;;;;;;;-2.41;88.78223;933.4439;;;;
2021/12/03 19:28:55;;;;;;;23.9;14.1;;;;;;;-2.49;89.06641;933.3444;;;;
2021/12/03 19:31:23;;;;;;;33.8;17.3;;;;;;;-2.37;89.01563;933.3008;;;;
2021/12/03 19:33:48;;;;;;;29.4;15.3;;;;;;;-2.31;89.24902;933.2742;;;;
2021/12/03 19:36:19;;;;;;;29;15.2;;;;;;;-2.19;88.62891;933.2144;;;;
2021/12/03 19:38:41;;;;;;;21.1;12;;;;;;;-2.18;88.51074;933.1318;;;;
2021/12/03 19:41:19;;;;;;;20.9;11.4;;;;;;;-2.19;88.73047;933.1997;;;;
2021/12/03 19:43:44;;;;;;;17;10;;;;;;;-2.27;88.58008;933.0793;;;;
2021/12/03 19:46:07;;;;;;;13.5;8.5;;;;;;;-2.08;88.56543;933.0503;;;;
2021/12/03 19:48:37;;;;;;;11.4;7.5;;;;;;;-2.21;88.56934;933.1086;;;;
2021/12/03 19:50:58;;;;;;;15.7;12.6;;;;;;;-2.33;88.25684;933.015;;;;
2021/12/03 19:53:27;;;;;;;17.6;10.7;;;;;;;-2.42;88.79199;932.9548;;;;
2021/12/03 19:55:46;;;;;;;15.4;10.6;;;;;;;-2.39;89.31055;933.0457;;;;
2021/12/03 19:58:14;;;;;;;18.2;11.3;;;;;;;-2.22;89.56543;933.0051;;;;
2021/12/03 20:00:40;;;;;;;21.7;15.9;;;;;;;-2.23;88.65625;932.9442;;;;
2021/12/03 20:03:08;;;;;;;14.3;9;;;;;;;-2.16;87.90723;932.9222;;;;
2021/12/03 20:05:33;;;;;;;15.4;10.6;;;;;;;-2.15;87.45313;932.8842;;;;
2021/12/03 20:08:00;;;;;;;10.4;6.5;;;;;;;-2.06;86.58496;932.9344;;;;
2021/12/03 20:10:26;;;;;;;10.1;6.3;;;;;;;-1.94;86.70898;932.8499;;;;
2021/12/03 20:12:50;;;;;;;11.5;7;;;;;;;-1.91;85.71582;932.8067;;;;